Redwood City, CA

2:46 AM PST on December 20, 2014 (GMT -0800)
Country Club Station | Change Station
CLOSE
Current Station
Personal Weather Station
Location: Redwood City, CA
Elevation: 236 ft
Nearby Weather Stations
Active Advisory: Coastal Flood Advisory Active Notice: Public Information Statement

Elev 236 ft 37.46 °N, 122.25 °W | Updated 11 seconds ago

Light Rain
Light Rain
55.2 °F
Feels Like 55.2 °F
N
0.0
Wind Variable Wind from North
Gusts 0.0 mph

Today
High -- | Low -- °F
--% Chance of Precip.
Yesterday
High -- | Low -- °F
Precip. -- in
7:19 AM 4:53 PM
Waning Crescent, 3% visible
Pressure 30.16 in
Visibility 4.0 miles
Clouds Few 2100 ft
Overcast 2700 ft
Dew Point 54 °F
Humidity 97%
Rainfall 0.00 in
Snow Depth Not available.
UV 0 out of 12
Pollen 2.00 out of 12
Air Quality Not available.
Flu Activity Not available.
METAR KSQL 201030Z AUTO 00000KT 4SM -RA FEW021 OVC027 13/13 A3016 RMK AO2

More Conditions Fewer Conditions

Pressure 30.16 in
Visibility 4.0 miles
Clouds Few 2100 ft
Overcast 2700 ft
Dew Point 54 °F
Humidity 97%
Rainfall 0.00 in
Snow Depth Not available.
UV 0 out of 12
Pollen 2.00 out of 12
Air Quality Not available.
Flu Activity Not available.
METAR KSQL 201030Z AUTO 00000KT 4SM -RA FEW021 OVC027 13/13 A3016 RMK AO2

More Conditions Fewer Conditions

10-Day Weather Forecast

Almanac

Astronomy

Dec. 20, 2014 Rise Set
Actual Time
Civil Twilight
Nautical Twilight
Astronomical Twilight
Moon
Length of Visible Light
Length of Day
Tomorrow will be .
, % of the Moon is Illuminated

Today's Extremes

State Highs State Lows

Community

WunderPhotos

Upload Photos

1,779,151 photos uploaded!

WunderBlogs® & News

Nearby

Air Quality

  Air Quality AQ Index Pollutant
Not available.

Snow Depth

Station Depth Elevation

Earthquake Activity

City Distance Mag. Time & Date
Minimum magnitude displayed is 2.5.

Coastal Water Temperatures

Place Temperature

Nearby Weather Stations